createdAt,value
2023-04-20T00:00:43.224Z,6.08
2023-04-20T00:03:12.791Z,6.20
2023-04-20T00:05:42.395Z,6.28
2023-04-20T00:08:11.233Z,6.35
2023-04-20T00:10:40.369Z,6.40
2023-04-20T00:13:10.485Z,6.45
2023-04-20T00:15:39.602Z,6.47
2023-04-20T00:18:08.592Z,6.47
2023-04-20T00:20:37.526Z,6.48
2023-04-20T00:23:06.377Z,6.38
2023-04-20T00:25:35.134Z,6.43
2023-04-20T00:28:03.918Z,6.45
2023-04-20T00:30:34.093Z,6.45
2023-04-20T00:33:03.329Z,6.47
2023-04-20T00:35:32.281Z,6.47
2023-04-20T00:38:01.038Z,6.33
2023-04-20T00:40:29.762Z,6.22
2023-04-20T00:42:58.642Z,6.10
2023-04-20T00:45:27.461Z,6.11
2023-04-20T00:47:57.611Z,6.15
2023-04-20T00:50:26.692Z,6.21
2023-04-20T00:52:56.006Z,6.13
2023-04-20T00:55:26.569Z,6.16
2023-04-20T00:57:55.309Z,6.21
2023-04-20T01:00:24.369Z,6.12
2023-04-20T01:02:53.313Z,6.02
2023-04-20T01:05:23.979Z,6.03
2023-04-20T01:07:52.660Z,5.93
2023-04-20T01:10:22.479Z,5.97
2023-04-20T01:12:51.335Z,6.04
2023-04-20T01:15:20.090Z,6.08
2023-04-20T01:17:49.718Z,6.11
2023-04-20T01:20:20.480Z,6.11
2023-04-20T01:22:54.052Z,6.09
2023-04-20T01:25:23.466Z,5.86
2023-04-20T01:27:52.141Z,5.77
2023-04-20T01:30:20.908Z,5.76
2023-04-20T01:32:49.946Z,5.76
2023-04-20T01:35:18.730Z,5.74
2023-04-20T01:37:47.603Z,5.73
2023-04-20T01:40:17.823Z,5.73
2023-04-20T01:42:46.694Z,5.73
2023-04-20T01:45:15.407Z,5.65
2023-04-20T01:47:44.139Z,5.74
2023-04-20T01:50:13.110Z,5.76
2023-04-20T01:52:41.986Z,5.72
2023-04-20T01:55:12.664Z,5.62
2023-04-20T01:57:44.634Z,5.67
2023-04-20T02:00:14.748Z,5.73
2023-04-20T02:02:43.603Z,5.78
2023-04-20T02:05:13.087Z,5.81
2023-04-20T02:07:41.914Z,5.85
2023-04-20T02:10:11.854Z,5.87
2023-04-20T02:12:42.076Z,5.90
2023-04-20T02:15:12.667Z,5.88
2023-04-20T02:17:41.827Z,5.88
2023-04-20T02:20:12.636Z,5.89
2023-04-20T02:22:41.390Z,5.92
2023-04-20T02:25:11.287Z,5.85
2023-04-20T02:27:41.542Z,5.75
2023-04-20T02:30:11.906Z,5.61
2023-04-20T02:32:40.825Z,5.68
2023-04-20T02:35:10.550Z,5.67
2023-04-20T02:37:39.364Z,5.68
2023-04-20T02:40:09.898Z,5.58
2023-04-20T02:42:38.625Z,5.52
2023-04-20T02:45:12.911Z,5.65
2023-04-20T02:47:44.497Z,5.70
2023-04-20T02:50:15.800Z,5.75
2023-04-20T02:53:04.968Z,5.79
2023-04-20T02:55:36.402Z,5.82
2023-04-20T02:58:14.139Z,5.82
2023-04-20T03:01:05.013Z,5.80
2023-04-20T03:03:35.291Z,5.75
2023-04-20T03:06:07.230Z,5.78
2023-04-20T03:08:35.981Z,5.77
2023-04-20T03:11:24.682Z,5.74
2023-04-20T03:13:53.416Z,5.69
2023-04-20T03:16:23.567Z,5.64
2023-04-20T03:18:54.348Z,5.68
2023-04-20T03:21:23.613Z,5.58
2023-04-20T03:23:52.532Z,5.44
2023-04-20T03:26:21.657Z,5.27
2023-04-20T03:29:12.403Z,5.19
2023-04-20T03:31:43.270Z,5.25
2023-04-20T03:34:13.341Z,5.33
2023-04-20T03:36:42.986Z,5.36
2023-04-20T03:39:11.929Z,5.39
2023-04-20T03:41:40.638Z,5.38
2023-04-20T03:44:09.333Z,5.36
2023-04-20T03:46:38.951Z,5.45
2023-04-20T03:49:09.963Z,5.47
2023-04-20T03:51:39.999Z,5.35
2023-04-20T03:54:08.997Z,5.28
2023-04-20T03:56:38.414Z,5.30
2023-04-20T03:59:07.486Z,5.25
2023-04-20T04:01:40.183Z,5.14
2023-04-20T04:04:10.879Z,5.09
2023-04-20T04:06:40.874Z,5.02
2023-04-20T04:09:11.659Z,4.95
2023-04-20T04:11:42.779Z,4.96
2023-04-20T04:14:12.098Z,5.04
2023-04-20T04:16:40.973Z,5.06
2023-04-20T04:19:13.531Z,5.16
2023-04-20T04:21:42.930Z,5.06
2023-04-20T04:24:15.408Z,5.01
2023-04-20T04:27:11.130Z,4.88
2023-04-20T04:29:46.346Z,4.89
2023-04-20T04:32:20.930Z,4.81
2023-04-20T04:34:53.183Z,4.66
2023-04-20T04:37:23.091Z,4.49
2023-04-20T04:39:58.302Z,4.60
2023-04-20T04:42:36.394Z,4.59
2023-04-20T04:45:10.477Z,4.60
2023-04-20T04:47:43.310Z,4.62
2023-04-20T04:50:14.392Z,4.69
2023-04-20T04:52:43.445Z,4.63
2023-04-20T04:55:13.800Z,4.62
2023-04-20T04:57:43.632Z,4.69
2023-04-20T05:00:13.905Z,4.86
2023-04-20T05:02:42.988Z,4.98
2023-04-20T05:05:13.216Z,5.10
2023-04-20T05:07:41.934Z,5.16
2023-04-20T05:10:10.872Z,5.07
2023-04-20T05:12:40.573Z,4.88
2023-04-20T05:15:10.783Z,4.72
2023-04-20T05:17:40.063Z,4.74
2023-04-20T05:20:12.446Z,4.72
2023-04-20T05:22:43.011Z,4.79
2023-04-20T05:25:14.186Z,4.83
2023-04-20T05:27:43.571Z,4.93
2023-04-20T05:30:21.523Z,4.95
2023-04-20T05:32:52.674Z,4.94
2023-04-20T05:35:22.645Z,4.67
2023-04-20T05:37:53.152Z,4.69
2023-04-20T05:40:24.579Z,4.71
2023-04-20T05:42:53.794Z,4.67
2023-04-20T05:45:23.286Z,4.65
2023-04-20T05:47:56.239Z,4.52
2023-04-20T05:50:26.082Z,4.63
2023-04-20T05:52:56.679Z,4.68
2023-04-20T05:55:26.416Z,4.57
2023-04-20T05:57:55.463Z,4.73
2023-04-20T06:00:26.181Z,4.68
2023-04-20T06:02:55.854Z,4.80
2023-04-20T06:05:25.389Z,4.77
2023-04-20T06:07:55.959Z,4.77
2023-04-20T06:10:25.189Z,4.88
2023-04-20T06:12:54.344Z,4.79
2023-04-20T06:15:23.438Z,4.83
2023-04-20T06:17:53.023Z,4.88
2023-04-20T06:20:22.680Z,4.94
2023-04-20T06:22:52.165Z,5.15
2023-04-20T06:25:22.947Z,5.19
2023-04-20T06:27:52.941Z,5.16
2023-04-20T06:30:22.562Z,5.20
2023-04-20T06:32:54.038Z,5.31
2023-04-20T06:35:23.628Z,5.28
2023-04-20T06:37:52.473Z,5.25
2023-04-20T06:40:22.974Z,5.29
2023-04-20T06:42:51.786Z,5.32
2023-04-20T06:45:21.412Z,5.42
2023-04-20T06:47:50.991Z,5.45
2023-04-20T06:50:20.277Z,5.56
2023-04-20T06:52:49.439Z,5.60
2023-04-20T06:55:21.547Z,5.39
2023-04-20T06:57:50.693Z,5.38
2023-04-20T07:00:20.648Z,5.29
2023-04-20T07:02:51.876Z,5.38
2023-04-20T07:05:21.719Z,5.50
2023-04-20T07:07:51.324Z,5.42
2023-04-20T07:10:22.050Z,5.30
2023-04-20T07:12:51.045Z,5.30
2023-04-20T07:15:20.128Z,5.29
2023-04-20T07:17:49.805Z,5.30
2023-04-20T07:20:21.166Z,5.40
2023-04-20T07:22:53.373Z,5.47
2023-04-20T07:25:24.607Z,5.54
2023-04-20T07:27:53.473Z,5.37
2023-04-20T07:30:22.353Z,5.29
2023-04-20T07:32:51.322Z,5.33
2023-04-20T07:35:20.482Z,5.26
2023-04-20T07:37:49.574Z,5.31
2023-04-20T07:40:18.710Z,5.39
2023-04-20T07:42:49.054Z,5.41
2023-04-20T07:45:17.862Z,5.48
2023-04-20T07:47:51.333Z,5.43
2023-04-20T07:50:20.436Z,5.46
2023-04-20T07:52:49.626Z,5.54
2023-04-20T07:55:18.478Z,5.50
2023-04-20T07:57:48.726Z,5.61
2023-04-20T08:00:19.213Z,5.71
2023-04-20T08:02:48.344Z,5.76
2023-04-20T08:05:17.539Z,5.77
2023-04-20T08:07:46.440Z,5.81
2023-04-20T08:10:15.229Z,5.79
2023-04-20T08:12:44.031Z,5.89
2023-04-20T08:15:15.249Z,5.80
2023-04-20T08:17:43.963Z,5.93
2023-04-20T08:20:13.279Z,6.07
2023-04-20T08:22:42.282Z,6.02
2023-04-20T08:25:14.756Z,6.06
2023-04-20T08:27:43.543Z,6.10
2023-04-20T08:30:14.861Z,6.21
2023-04-20T08:32:43.962Z,6.30
2023-04-20T08:35:13.689Z,6.25
2023-04-20T08:37:43.062Z,6.26
2023-04-20T08:40:12.982Z,6.32
2023-04-20T08:42:41.943Z,6.34
2023-04-20T08:45:11.512Z,6.27
2023-04-20T08:47:44.603Z,6.27
2023-04-20T08:50:13.900Z,6.22
2023-04-20T08:52:42.697Z,6.20
2023-04-20T08:55:11.865Z,6.33
2023-04-20T08:57:41.612Z,6.18
2023-04-20T09:00:14.023Z,6.31
2023-04-20T09:03:01.526Z,6.49
2023-04-20T09:05:33.437Z,6.47
2023-04-20T09:08:05.205Z,6.51
2023-04-20T09:10:43.305Z,6.63
2023-04-20T09:13:22.881Z,6.69
2023-04-20T09:15:51.781Z,6.76
2023-04-20T09:18:22.273Z,6.71
2023-04-20T09:20:51.108Z,6.66
2023-04-20T09:23:22.405Z,6.85
2023-04-20T09:25:53.800Z,6.92
2023-04-20T09:28:22.583Z,6.99
2023-04-20T09:30:51.841Z,7.07
2023-04-20T09:33:28.815Z,7.08
2023-04-20T09:36:05.738Z,7.13
2023-04-20T09:38:34.426Z,7.08
2023-04-20T09:41:03.493Z,7.18
2023-04-20T09:43:32.628Z,7.29
2023-04-20T09:46:01.821Z,7.29
2023-04-20T09:48:32.407Z,7.36
2023-04-20T09:51:04.025Z,7.28
2023-04-20T09:53:34.511Z,7.26
2023-04-20T09:56:04.109Z,7.24
2023-04-20T09:58:35.825Z,7.24
2023-04-20T10:01:04.593Z,7.33
2023-04-20T10:03:36.242Z,7.19
2023-04-20T10:06:05.379Z,7.32
2023-04-20T10:08:42.568Z,7.18
2023-04-20T10:11:11.296Z,7.11
2023-04-20T10:13:40.304Z,7.20
2023-04-20T10:16:20.229Z,7.18
2023-04-20T10:19:02.000Z,7.28
2023-04-20T10:21:32.460Z,7.33
2023-04-20T10:24:03.337Z,7.30
2023-04-20T10:26:39.185Z,7.33
2023-04-20T10:29:08.266Z,7.35
2023-04-20T10:31:41.729Z,7.44
2023-04-20T10:34:12.219Z,7.45
2023-04-20T10:36:41.725Z,7.49
2023-04-20T10:39:19.752Z,7.43
2023-04-20T10:41:58.473Z,7.49
2023-04-20T10:44:27.234Z,7.45
2023-04-20T10:46:56.749Z,7.41
2023-04-20T10:49:30.171Z,7.45
2023-04-20T10:51:59.005Z,7.44
2023-04-20T10:54:29.023Z,7.40
2023-04-20T10:56:57.722Z,7.33
2023-04-20T10:59:26.548Z,7.38
2023-04-20T11:01:55.826Z,7.39
2023-04-20T11:04:33.731Z,7.48
2023-04-20T11:07:08.927Z,7.47
2023-04-20T11:09:38.789Z,7.41
2023-04-20T11:12:09.651Z,7.40
2023-04-20T11:14:40.624Z,7.48
2023-04-20T11:17:16.276Z,7.52
2023-04-20T11:20:34.541Z,7.45
2023-04-20T11:23:23.885Z,7.47
2023-04-20T11:26:21.718Z,7.48
2023-04-20T11:28:56.703Z,7.68
2023-04-20T11:31:37.428Z,7.72
2023-04-20T11:34:09.421Z,7.79
2023-04-20T11:37:02.263Z,7.83
2023-04-20T11:39:32.317Z,7.79
2023-04-20T11:42:18.287Z,7.85
2023-04-20T11:45:20.402Z,7.90
2023-04-20T11:48:19.804Z,7.99
2023-04-20T11:50:58.416Z,8.05
2023-04-20T11:53:36.636Z,8.05
2023-04-20T11:56:13.396Z,8.00
2023-04-20T11:58:59.748Z,8.09
2023-04-20T12:07:36.980Z,8.03
2023-04-20T12:10:30.481Z,8.01
2023-04-20T12:13:16.450Z,8.11
2023-04-20T12:15:45.455Z,8.19
2023-04-20T12:18:28.978Z,8.32
2023-04-20T12:21:02.083Z,8.31
2023-04-20T12:23:34.126Z,8.32
2023-04-20T12:26:05.181Z,8.34
2023-04-20T12:28:36.446Z,8.31
2023-04-20T12:31:05.897Z,8.26
2023-04-20T12:33:41.865Z,8.20
2023-04-20T12:36:12.357Z,8.16
2023-04-20T12:38:41.036Z,8.28
2023-04-20T12:41:16.725Z,8.34
2023-04-20T12:43:45.428Z,8.46
2023-04-20T12:46:14.244Z,8.43
2023-04-20T12:48:43.343Z,8.51
2023-04-20T12:51:12.149Z,8.57
2023-04-20T12:53:40.851Z,8.51
2023-04-20T12:56:11.563Z,8.59
2023-04-20T12:58:40.192Z,8.68
2023-04-20T13:01:09.304Z,8.75
2023-04-20T13:03:38.167Z,8.75
2023-04-20T13:06:08.027Z,8.79
2023-04-20T13:08:37.305Z,8.75
2023-04-20T13:11:06.452Z,8.77
2023-04-20T13:13:36.576Z,8.76
2023-04-20T13:16:05.774Z,8.85
2023-04-20T13:18:34.606Z,8.84
2023-04-20T13:21:03.396Z,8.81
2023-04-20T13:23:32.128Z,8.87
2023-04-20T13:26:01.802Z,8.97
2023-04-20T13:28:30.541Z,9.03
2023-04-20T13:31:00.618Z,9.11
2023-04-20T13:33:29.349Z,9.03
2023-04-20T13:35:58.042Z,9.09
2023-04-20T13:38:26.799Z,9.07
2023-04-20T13:40:55.653Z,9.16
2023-04-20T13:43:24.359Z,9.26
2023-04-20T13:45:53.240Z,9.29
2023-04-20T13:48:23.446Z,9.14
2023-04-20T13:50:54.097Z,9.26
2023-04-20T13:53:22.872Z,9.33
2023-04-20T13:55:51.620Z,9.50
2023-04-20T13:58:20.255Z,9.62
2023-04-20T14:00:48.925Z,9.76
2023-04-20T14:03:20.309Z,9.86
2023-04-20T14:05:51.771Z,9.74
2023-04-20T14:08:23.341Z,9.81
2023-04-20T14:10:52.693Z,9.87
2023-04-20T14:13:21.674Z,9.82
2023-04-20T14:15:51.098Z,9.82
2023-04-20T14:18:19.844Z,9.74
2023-04-20T14:20:52.450Z,9.75
2023-04-20T14:23:21.273Z,9.83
2023-04-20T14:25:49.912Z,9.88
2023-04-20T14:28:18.857Z,9.84
2023-04-20T14:30:47.649Z,9.96
2023-04-20T14:33:16.387Z,10.13
2023-04-20T14:35:46.345Z,10.26
2023-04-20T14:38:16.754Z,10.35
2023-04-20T14:40:46.152Z,10.35
2023-04-20T14:43:14.873Z,10.46
2023-04-20T14:45:45.897Z,10.52
2023-04-20T14:48:14.933Z,10.55
2023-04-20T14:50:43.839Z,10.48
2023-04-20T14:53:13.288Z,10.39
2023-04-20T14:55:43.445Z,10.43
2023-04-20T14:58:12.204Z,10.44
2023-04-20T15:00:40.814Z,10.52
2023-04-20T15:03:09.646Z,10.50
2023-04-20T15:05:38.625Z,10.48
2023-04-20T15:08:07.492Z,10.55
2023-04-20T15:10:37.993Z,10.64
2023-04-20T15:13:08.482Z,10.69
2023-04-20T15:15:47.480Z,10.78
2023-04-20T15:18:17.176Z,10.86
2023-04-20T15:20:46.721Z,10.98
2023-04-20T15:23:15.648Z,11.10
2023-04-20T15:25:44.959Z,11.17
2023-04-20T15:28:15.243Z,11.19
2023-04-20T15:30:44.339Z,11.17
2023-04-20T15:33:13.220Z,11.18
2023-04-20T15:35:42.665Z,11.22
2023-04-20T15:38:11.495Z,11.26
2023-04-20T15:40:40.173Z,11.21
2023-04-20T15:43:09.520Z,11.12
2023-04-20T15:45:39.699Z,11.07
2023-04-20T15:48:09.022Z,11.05
2023-04-20T15:50:37.812Z,11.05
2023-04-20T15:53:07.427Z,11.02
2023-04-20T15:55:40.323Z,10.97
2023-04-20T15:58:09.323Z,10.97
2023-04-20T16:00:42.212Z,11.01
2023-04-20T16:03:13.412Z,11.06
2023-04-20T16:05:43.407Z,11.02
2023-04-20T16:08:13.254Z,11.18
2023-04-20T16:10:42.008Z,11.26
2023-04-20T16:13:11.856Z,11.36
2023-04-20T16:15:42.322Z,11.45
2023-04-20T16:18:11.517Z,11.52
2023-04-20T16:20:41.475Z,11.54
2023-04-20T16:23:10.488Z,11.46
2023-04-20T16:25:39.723Z,11.47
2023-04-20T16:28:09.101Z,11.59
2023-04-20T16:30:38.159Z,11.61
2023-04-20T16:33:08.732Z,11.60
2023-04-20T16:35:38.749Z,11.57
2023-04-20T16:38:10.403Z,11.50
2023-04-20T16:40:39.999Z,11.48
2023-04-20T16:43:09.049Z,11.43
2023-04-20T16:45:39.960Z,11.37
2023-04-20T16:48:10.450Z,11.28
2023-04-20T16:50:41.562Z,11.22
2023-04-20T16:53:11.402Z,11.19
2023-04-20T16:55:40.672Z,11.12
2023-04-20T16:58:10.041Z,11.08
2023-04-20T17:00:39.082Z,11.02
2023-04-20T17:03:10.977Z,10.94
2023-04-20T17:05:42.092Z,10.90
2023-04-20T17:08:11.296Z,10.78
2023-04-20T17:10:40.483Z,10.69
2023-04-20T17:13:09.124Z,10.63
2023-04-20T17:15:40.081Z,10.51
2023-04-20T17:18:10.894Z,10.43
2023-04-20T17:20:40.054Z,10.28
2023-04-20T17:23:09.562Z,10.30
2023-04-20T17:25:38.881Z,10.18
2023-04-20T17:28:07.708Z,10.08
2023-04-20T17:30:36.408Z,10.01
2023-04-20T17:33:07.189Z,9.97
2023-04-20T17:35:38.175Z,9.96
2023-04-20T17:38:07.323Z,9.88
2023-04-20T17:44:21.261Z,9.57
2023-04-20T17:47:24.105Z,9.45
2023-04-20T17:50:03.249Z,9.43
2023-04-20T17:53:16.356Z,9.33
2023-04-20T17:56:27.783Z,9.39
2023-04-20T17:59:15.302Z,9.28
2023-04-20T18:01:53.586Z,9.24
2023-04-20T18:04:34.029Z,9.27
2023-04-20T18:07:05.811Z,9.13
2023-04-20T18:09:36.359Z,9.04
2023-04-20T18:12:22.827Z,9.03
2023-04-20T18:15:10.906Z,8.90
2023-04-20T18:17:44.610Z,8.85
2023-04-20T18:20:23.521Z,8.75
2023-04-20T18:23:15.110Z,8.68
2023-04-20T18:25:47.998Z,8.69
2023-04-20T18:28:59.454Z,8.57
2023-04-20T18:31:31.696Z,8.52
2023-04-20T18:37:22.107Z,8.46
2023-04-20T18:39:54.141Z,8.38
2023-04-20T18:42:29.114Z,8.33
2023-04-20T18:44:57.901Z,8.22
2023-04-20T18:47:49.145Z,8.25
2023-04-20T18:50:29.558Z,8.31
2023-04-20T18:53:01.622Z,8.26
2023-04-20T18:55:31.113Z,8.15
2023-04-20T18:58:05.453Z,8.16
2023-04-20T19:00:47.283Z,8.09
2023-04-20T19:03:28.875Z,8.07
2023-04-20T19:06:11.567Z,7.97
2023-04-20T19:08:41.710Z,8.05
2023-04-20T19:11:11.173Z,8.06
2023-04-20T19:13:44.592Z,7.96
2023-04-20T19:16:14.084Z,7.94
2023-04-20T19:18:43.996Z,7.95
2023-04-20T19:21:13.233Z,7.82
2023-04-20T19:23:44.908Z,7.77
2023-04-20T19:26:15.606Z,7.73
2023-04-20T19:28:46.268Z,7.68
2023-04-20T19:31:16.324Z,7.73
2023-04-20T19:33:45.325Z,7.83
2023-04-20T19:36:14.636Z,7.76
2023-04-20T19:38:43.331Z,7.72
2023-04-20T19:41:12.330Z,7.62
2023-04-20T19:43:41.486Z,7.55
2023-04-20T19:46:11.799Z,7.55
2023-04-20T19:48:40.621Z,7.48
2023-04-20T19:51:10.033Z,7.50
2023-04-20T19:53:38.782Z,7.45
2023-04-20T19:56:07.484Z,7.54
2023-04-20T19:58:36.133Z,7.57
2023-04-20T20:01:05.240Z,7.49
2023-04-20T20:03:35.570Z,7.49
2023-04-20T20:06:05.168Z,7.41
2023-04-20T20:08:33.861Z,7.50
2023-04-20T20:11:02.449Z,7.43
2023-04-20T20:13:31.161Z,7.38
2023-04-20T20:16:00.417Z,7.28
2023-04-20T20:18:29.366Z,7.21
2023-04-20T20:20:59.474Z,7.28
2023-04-20T20:23:28.270Z,7.33
2023-04-20T20:25:57.093Z,7.40
2023-04-20T20:28:25.820Z,7.44
2023-04-20T20:30:54.611Z,7.30
2023-04-20T20:33:23.502Z,7.39
2023-04-20T20:35:52.583Z,7.31
2023-04-20T20:38:22.954Z,7.23
2023-04-20T20:40:53.548Z,7.25
2023-04-20T20:43:23.281Z,7.19
2023-04-20T20:45:52.241Z,7.08
2023-04-20T20:48:20.915Z,7.08
2023-04-20T20:50:49.626Z,7.12
2023-04-20T20:53:20.448Z,7.11
2023-04-20T20:55:50.757Z,7.12
2023-04-20T20:58:19.488Z,7.12
2023-04-20T21:00:48.425Z,7.12
2023-04-20T21:03:17.364Z,7.12
2023-04-20T21:05:46.349Z,6.99
2023-04-20T21:08:17.331Z,7.05
2023-04-20T21:10:45.982Z,7.07
2023-04-20T21:13:16.136Z,7.01
2023-04-20T21:15:44.825Z,7.00
2023-04-20T21:18:13.637Z,6.87
2023-04-20T21:20:42.332Z,6.80
2023-04-20T21:23:11.088Z,6.84
2023-04-20T21:25:39.797Z,6.68
2023-04-20T21:28:08.438Z,6.69
2023-04-20T21:30:38.572Z,6.66
2023-04-20T21:33:07.526Z,6.74
2023-04-20T21:35:36.393Z,6.74
2023-04-20T21:38:05.880Z,6.77
2023-04-20T21:40:35.059Z,6.82
2023-04-20T21:43:03.825Z,6.75
2023-04-20T21:45:32.495Z,6.61
2023-04-20T21:48:03.079Z,6.61
2023-04-20T21:50:31.810Z,6.50
2023-04-20T21:53:00.553Z,6.38
2023-04-20T21:55:29.629Z,6.48
2023-04-20T21:57:58.387Z,6.41
2023-04-20T22:00:27.121Z,6.44
2023-04-20T22:02:56.092Z,6.40
2023-04-20T22:05:26.332Z,6.47
2023-04-20T22:07:55.149Z,6.42
2023-04-20T22:10:24.543Z,6.32
2023-04-20T22:12:53.403Z,6.46
2023-04-20T22:15:23.416Z,6.38
2023-04-20T22:17:52.455Z,6.18
2023-04-20T22:20:21.275Z,6.19
2023-04-20T22:22:51.338Z,6.21
2023-04-20T22:25:20.147Z,6.10
2023-04-20T22:27:49.043Z,6.12
2023-04-20T22:30:17.837Z,6.05
2023-04-20T22:32:46.571Z,5.99
2023-04-20T22:35:15.365Z,6.06
2023-04-20T22:37:44.183Z,5.95
2023-04-20T22:40:14.849Z,6.01
2023-04-20T22:42:43.589Z,5.90
2023-04-20T22:45:12.972Z,5.98
2023-04-20T22:47:41.882Z,5.93
2023-04-20T22:50:12.033Z,5.93
2023-04-20T22:52:40.817Z,5.96
2023-04-20T22:55:11.438Z,5.84
2023-04-20T22:57:41.564Z,5.89
2023-04-20T23:00:13.668Z,5.92
2023-04-20T23:02:42.661Z,5.82
2023-04-20T23:05:12.025Z,5.69
2023-04-20T23:07:41.608Z,5.65
2023-04-20T23:10:11.947Z,5.62
2023-04-20T23:12:42.902Z,5.58
2023-04-20T23:15:12.828Z,5.65
2023-04-20T23:17:41.545Z,5.61
2023-04-20T23:20:13.931Z,5.68
2023-04-20T23:22:42.953Z,5.71
2023-04-20T23:25:11.780Z,5.59
2023-04-20T23:27:41.878Z,5.62
2023-04-20T23:30:11.842Z,5.55
2023-04-20T23:32:42.400Z,5.69
2023-04-20T23:35:12.601Z,5.68
2023-04-20T23:37:41.416Z,5.63
2023-04-20T23:40:12.005Z,5.49
2023-04-20T23:42:42.162Z,5.48
2023-04-20T23:45:12.305Z,5.51
2023-04-20T23:47:41.195Z,5.51
2023-04-20T23:50:11.090Z,5.44
2023-04-20T23:52:40.651Z,5.44
2023-04-20T23:55:10.898Z,5.30
2023-04-20T23:57:39.647Z,5.38
